Time;durP1;ratioP1;P1;durP2;ratioP2;P2;SDS_P1;SDS_P2;PMS_P1;PMS_P2;Temp;Humidity;BMP_temperature;BMP_pressure;BME280_temperature;BME280_humidity;BME280_pressure;Samples;Min_cycle;Max_cycle;Signal;HPM_P1;HPM_P2
2021/09/17 00:00:43;;;;;;;;;26.75;26.00;;;;;;;;4973542;28;51630;-61
2021/09/17 00:03:09;;;;;;;;;26.25;25.00;;;;;;;;5001655;28;51128;-62
2021/09/17 00:05:34;;;;;;;;;23.50;22.75;;;;;;;;4997049;28;51061;-62
2021/09/17 00:07:59;;;;;;;;;24.25;24.25;;;;;;;;4996778;28;51476;-61
2021/09/17 00:10:25;;;;;;;;;25.00;24.50;;;;;;;;4996361;28;52462;-61
2021/09/17 00:12:50;;;;;;;;;23.50;23.25;;;;;;;;4997078;28;51224;-61
2021/09/17 00:15:15;;;;;;;;;25.50;22.50;;;;;;;;4994514;28;51860;-61
2021/09/17 00:17:41;;;;;;;;;24.75;24.50;;;;;;;;4992047;28;52736;-62
2021/09/17 00:20:07;;;;;;;;;23.75;23.00;;;;;;;;4996816;28;51350;-61
2021/09/17 00:22:32;;;;;;;;;23.25;23.00;;;;;;;;4975538;28;51456;-62
2021/09/17 00:24:58;;;;;;;;;25.50;25.00;;;;;;;;4999589;28;51350;-64
2021/09/17 00:27:23;;;;;;;;;27.50;26.25;;;;;;;;5001722;28;51348;-60
2021/09/17 00:29:48;;;;;;;;;24.00;23.00;;;;;;;;4979390;28;53905;-60
2021/09/17 00:32:14;;;;;;;;;26.00;24.00;;;;;;;;5000256;28;51189;-61
2021/09/17 00:34:39;;;;;;;;;20.00;19.75;;;;;;;;4995630;28;51180;-61
2021/09/17 00:37:04;;;;;;;;;24.00;24.00;;;;;;;;4995698;28;51628;-61
2021/09/17 00:39:29;;;;;;;;;23.50;22.50;;;;;;;;4995415;28;53094;-61
2021/09/17 00:41:57;;;;;;;;;24.75;24.25;;;;;;;;4996211;28;51268;-61
2021/09/17 00:44:23;;;;;;;;;27.00;26.00;;;;;;;;4994415;28;51239;-61
2021/09/17 00:46:49;;;;;;;;;24.50;24.50;;;;;;;;4993815;28;51806;-61
2021/09/17 00:49:14;;;;;;;;;25.75;24.25;;;;;;;;4996383;28;51269;-61
2021/09/17 00:51:40;;;;;;;;;23.50;23.00;;;;;;;;4997334;28;51199;-61
2021/09/17 00:54:05;;;;;;;;;26.75;23.75;;;;;;;;4995573;28;51125;-61
2021/09/17 00:56:30;;;;;;;;;26.00;25.50;;;;;;;;4996219;28;53155;-61
2021/09/17 00:58:55;;;;;;;;;27.00;26.75;;;;;;;;4995129;28;52702;-61
2021/09/17 01:01:20;;;;;;;;;24.75;24.25;;;;;;;;4975713;28;51437;-61
2021/09/17 01:03:46;;;;;;;;;23.00;23.00;;;;;;;;4997694;28;51367;-60
2021/09/17 01:06:11;;;;;;;;;20.75;20.25;;;;;;;;4997149;28;52288;-61
2021/09/17 01:08:37;;;;;;;;;25.50;23.00;;;;;;;;5001603;28;51166;-60
2021/09/17 01:11:02;;;;;;;;;23.75;23.75;;;;;;;;5002731;28;50919;-61
2021/09/17 01:13:28;;;;;;;;;25.50;25.00;;;;;;;;4996827;28;52883;-61
2021/09/17 01:15:53;;;;;;;;;21.00;20.25;;;;;;;;4999366;28;51375;-61
2021/09/17 01:18:19;;;;;;;;;21.75;21.75;;;;;;;;4996478;28;51922;-61
2021/09/17 01:20:44;;;;;;;;;23.75;23.75;;;;;;;;4999010;28;51121;-61
2021/09/17 01:23:09;;;;;;;;;22.50;20.75;;;;;;;;4998082;28;52811;-61
2021/09/17 01:25:35;;;;;;;;;21.50;21.00;;;;;;;;5002704;28;51194;-60
2021/09/17 01:28:00;;;;;;;;;21.75;21.00;;;;;;;;5004090;28;53366;-60
2021/09/17 01:30:25;;;;;;;;;22.75;20.25;;;;;;;;4998646;28;51261;-61
2021/09/17 01:32:51;;;;;;;;;22.25;21.50;;;;;;;;5011285;28;51083;-60
2021/09/17 01:35:17;;;;;;;;;21.75;21.00;;;;;;;;5011227;28;50900;-62
2021/09/17 01:37:43;;;;;;;;;19.00;19.00;;;;;;;;5012243;28;51136;-61
2021/09/17 01:40:09;;;;;;;;;21.75;21.25;;;;;;;;5006617;28;53667;-61
2021/09/17 01:42:35;;;;;;;;;22.00;21.00;;;;;;;;4995303;28;51339;-62
2021/09/17 01:45:01;;;;;;;;;21.25;20.00;;;;;;;;5004307;28;51258;-59
2021/09/17 01:47:26;;;;;;;;;19.00;18.25;;;;;;;;5001789;28;52510;-61
2021/09/17 01:49:51;;;;;;;;;21.00;21.00;;;;;;;;5002931;28;51057;-62
2021/09/17 01:52:17;;;;;;;;;22.50;22.00;;;;;;;;5011117;28;51604;-61
2021/09/17 01:54:42;;;;;;;;;21.00;20.00;;;;;;;;5011651;28;51028;-61
2021/09/17 01:57:07;;;;;;;;;22.00;21.00;;;;;;;;5014937;28;52187;-61
2021/09/17 01:59:33;;;;;;;;;22.50;20.50;;;;;;;;5003022;28;51154;-61
2021/09/17 02:01:58;;;;;;;;;20.75;20.50;;;;;;;;5007913;28;51133;-61
2021/09/17 02:04:23;;;;;;;;;25.00;22.50;;;;;;;;5013027;28;51056;-61
2021/09/17 02:06:48;;;;;;;;;21.00;21.00;;;;;;;;5012885;28;51063;-61
2021/09/17 02:09:14;;;;;;;;;24.00;22.75;;;;;;;;5009124;28;51219;-61
2021/09/17 02:11:39;;;;;;;;;20.75;20.75;;;;;;;;5008491;28;51049;-60
2021/09/17 02:14:04;;;;;;;;;27.75;25.75;;;;;;;;5012719;28;51069;-61
2021/09/17 02:16:29;;;;;;;;;24.75;23.00;;;;;;;;5010238;28;51732;-61
2021/09/17 02:18:55;;;;;;;;;29.25;27.50;;;;;;;;5011564;28;50940;-61
2021/09/17 02:21:22;;;;;;;;;24.50;24.00;;;;;;;;5015022;28;51364;-61
2021/09/17 02:23:48;;;;;;;;;25.50;24.25;;;;;;;;5005368;28;51086;-61
2021/09/17 02:26:13;;;;;;;;;26.50;26.25;;;;;;;;4994734;28;51172;-61
2021/09/17 02:28:38;;;;;;;;;22.50;21.25;;;;;;;;5008403;28;52828;-61
2021/09/17 02:31:04;;;;;;;;;25.50;25.50;;;;;;;;5014421;28;50809;-60
2021/09/17 02:33:29;;;;;;;;;25.50;25.25;;;;;;;;5007130;28;51183;-60
2021/09/17 02:35:54;;;;;;;;;23.25;22.25;;;;;;;;5011131;28;51968;-61
2021/09/17 02:38:22;;;;;;;;;27.25;25.25;;;;;;;;5013585;28;51003;-61
2021/09/17 02:40:47;;;;;;;;;25.25;24.50;;;;;;;;5001028;28;51320;-61
2021/09/17 02:43:12;;;;;;;;;24.25;23.50;;;;;;;;5011377;28;51141;-61
2021/09/17 02:45:37;;;;;;;;;25.25;23.50;;;;;;;;5012323;28;51088;-61
2021/09/17 02:48:03;;;;;;;;;25.00;24.00;;;;;;;;5012358;28;51205;-61
2021/09/17 02:50:28;;;;;;;;;25.75;23.50;;;;;;;;4975659;28;51763;-60
2021/09/17 02:52:53;;;;;;;;;27.75;26.00;;;;;;;;5003919;28;51065;-60
2021/09/17 02:55:18;;;;;;;;;28.50;27.50;;;;;;;;5012764;28;51182;-61
2021/09/17 02:57:44;;;;;;;;;27.75;26.75;;;;;;;;5013617;28;51063;-60
2021/09/17 03:00:09;;;;;;;;;23.75;23.75;;;;;;;;5001369;28;51212;-61
2021/09/17 03:02:35;;;;;;;;;27.75;27.25;;;;;;;;5003185;28;51489;-60
2021/09/17 03:05:00;;;;;;;;;27.50;26.00;;;;;;;;5003519;28;52308;-60
2021/09/17 03:07:25;;;;;;;;;23.75;23.75;;;;;;;;5013006;28;50992;-61
2021/09/17 03:09:51;;;;;;;;;26.25;26.25;;;;;;;;5002329;28;51165;-60
2021/09/17 03:12:16;;;;;;;;;22.75;21.75;;;;;;;;5008859;28;51261;-61
2021/09/17 03:14:41;;;;;;;;;20.50;20.00;;;;;;;;5008125;28;51622;-60
2021/09/17 03:17:06;;;;;;;;;24.50;24.50;;;;;;;;5012903;28;51052;-61
2021/09/17 03:19:32;;;;;;;;;24.00;23.25;;;;;;;;5007088;28;51255;-60
2021/09/17 03:21:59;;;;;;;;;24.00;24.00;;;;;;;;5010066;28;51218;-61
2021/09/17 03:24:25;;;;;;;;;27.25;25.25;;;;;;;;5010964;28;50923;-60
2021/09/17 03:26:50;;;;;;;;;21.75;21.25;;;;;;;;5009378;28;51364;-59
2021/09/17 03:29:15;;;;;;;;;21.75;21.25;;;;;;;;4999904;28;51300;-61
2021/09/17 03:31:40;;;;;;;;;22.75;22.75;;;;;;;;5010970;28;51086;-61
2021/09/17 03:34:06;;;;;;;;;23.50;23.00;;;;;;;;5001978;28;52706;-61
2021/09/17 03:36:31;;;;;;;;;21.75;21.50;;;;;;;;5007241;28;51205;-60
2021/09/17 03:38:56;;;;;;;;;21.50;21.50;;;;;;;;5011669;28;51090;-59
2021/09/17 03:41:22;;;;;;;;;22.50;22.00;;;;;;;;4993003;28;51336;-61
2021/09/17 03:43:47;;;;;;;;;25.50;24.75;;;;;;;;4994843;28;51155;-61
2021/09/17 03:46:12;;;;;;;;;21.75;21.00;;;;;;;;4996555;28;52942;-61
2021/09/17 03:48:38;;;;;;;;;26.00;26.00;;;;;;;;4995355;28;51289;-60
2021/09/17 03:51:03;;;;;;;;;24.50;23.00;;;;;;;;4993092;28;52504;-61
2021/09/17 03:53:28;;;;;;;;;25.00;24.50;;;;;;;;5005342;28;51811;-61
2021/09/17 03:55:53;;;;;;;;;24.25;22.50;;;;;;;;4996969;28;51258;-61
2021/09/17 03:58:18;;;;;;;;;24.25;23.00;;;;;;;;4975205;28;51767;-60
2021/09/17 04:00:44;;;;;;;;;25.00;24.75;;;;;;;;4993967;28;51115;-61
2021/09/17 04:03:09;;;;;;;;;25.75;25.00;;;;;;;;4995499;28;51974;-60
2021/09/17 04:05:34;;;;;;;;;27.25;24.25;;;;;;;;4994289;28;52621;-60
2021/09/17 04:07:59;;;;;;;;;25.25;25.00;;;;;;;;5007336;28;51375;-60
2021/09/17 04:10:24;;;;;;;;;24.25;23.25;;;;;;;;4998965;28;52731;-60
2021/09/17 04:12:50;;;;;;;;;25.75;24.50;;;;;;;;5011181;28;52024;-61
2021/09/17 04:15:16;;;;;;;;;21.75;20.50;;;;;;;;4982774;28;51082;-62
2021/09/17 04:17:41;;;;;;;;;27.00;26.75;;;;;;;;5012670;28;50953;-60
2021/09/17 04:20:07;;;;;;;;;22.50;22.25;;;;;;;;5009481;28;51229;-60
2021/09/17 04:22:33;;;;;;;;;22.00;21.75;;;;;;;;5009678;28;51759;-59
2021/09/17 04:24:58;;;;;;;;;20.25;19.50;;;;;;;;5009538;28;51317;-60
2021/09/17 04:27:26;;;;;;;;;23.00;22.00;;;;;;;;5013147;28;51036;-60
2021/09/17 04:29:52;;;;;;;;;25.50;23.25;;;;;;;;5004590;28;51245;-60
2021/09/17 04:32:17;;;;;;;;;24.00;22.00;;;;;;;;5007642;28;51800;-60
2021/09/17 04:34:42;;;;;;;;;22.25;21.50;;;;;;;;4997489;28;52568;-59
2021/09/17 04:37:08;;;;;;;;;23.00;22.00;;;;;;;;5007726;28;51244;-60
2021/09/17 04:39:33;;;;;;;;;22.75;21.75;;;;;;;;5005783;28;51110;-59
2021/09/17 04:41:58;;;;;;;;;22.25;22.00;;;;;;;;4996179;28;51681;-59
2021/09/17 04:44:23;;;;;;;;;23.75;23.00;;;;;;;;4997673;28;51210;-59
2021/09/17 04:46:49;;;;;;;;;25.25;22.50;;;;;;;;4990408;28;52718;-60
2021/09/17 04:49:14;;;;;;;;;25.25;24.00;;;;;;;;4996360;28;52916;-60
2021/09/17 04:51:39;;;;;;;;;21.75;20.75;;;;;;;;5002700;28;52156;-60
2021/09/17 04:54:04;;;;;;;;;22.50;22.50;;;;;;;;4975336;28;52600;-60
2021/09/17 04:56:30;;;;;;;;;24.00;23.00;;;;;;;;4997485;28;52538;-60
2021/09/17 04:58:55;;;;;;;;;25.50;23.25;;;;;;;;4978607;28;51472;-59
2021/09/17 05:01:20;;;;;;;;;22.50;21.75;;;;;;;;4994870;28;54313;-60
2021/09/17 05:03:46;;;;;;;;;22.25;21.75;;;;;;;;4998898;28;53602;-59
2021/09/17 05:06:11;;;;;;;;;21.75;20.75;;;;;;;;4999488;28;51211;-60
2021/09/17 05:08:36;;;;;;;;;23.25;20.75;;;;;;;;4996431;28;51051;-59
2021/09/17 05:11:02;;;;;;;;;22.75;22.50;;;;;;;;4995991;28;51826;-59
2021/09/17 05:13:27;;;;;;;;;23.50;22.00;;;;;;;;4997660;28;51116;-59
2021/09/17 05:15:52;;;;;;;;;25.50;23.50;;;;;;;;4997284;28;52858;-60
2021/09/17 05:18:18;;;;;;;;;21.25;20.00;;;;;;;;4998408;28;51207;-60
2021/09/17 05:20:43;;;;;;;;;22.00;20.75;;;;;;;;4996074;28;51831;-60
2021/09/17 05:23:08;;;;;;;;;26.25;24.75;;;;;;;;4998072;28;51335;-60
2021/09/17 05:25:33;;;;;;;;;25.25;24.50;;;;;;;;4994854;28;51208;-60
2021/09/17 05:27:59;;;;;;;;;23.75;23.25;;;;;;;;4995828;28;51285;-60
2021/09/17 05:30:24;;;;;;;;;21.00;20.00;;;;;;;;4997501;28;53376;-60
2021/09/17 05:32:49;;;;;;;;;20.50;20.50;;;;;;;;4977405;28;51313;-60
2021/09/17 05:35:15;;;;;;;;;21.75;20.50;;;;;;;;4998215;28;51194;-61
2021/09/17 05:37:40;;;;;;;;;26.25;24.00;;;;;;;;4983771;28;51101;-60
2021/09/17 05:40:06;;;;;;;;;23.00;23.00;;;;;;;;4999012;28;53329;-60
2021/09/17 05:42:31;;;;;;;;;25.50;25.00;;;;;;;;4994414;28;53313;-63
2021/09/17 05:44:56;;;;;;;;;25.75;22.75;;;;;;;;4993540;28;51424;-60
2021/09/17 05:47:22;;;;;;;;;22.25;21.75;;;;;;;;4996484;28;51285;-60
2021/09/17 05:49:47;;;;;;;;;25.25;22.00;;;;;;;;5009106;28;51866;-60
2021/09/17 05:52:13;;;;;;;;;26.50;25.50;;;;;;;;5014812;28;51067;-60
2021/09/17 05:54:39;;;;;;;;;19.00;17.75;;;;;;;;4999345;28;51162;-60
2021/09/17 05:57:04;;;;;;;;;22.00;21.75;;;;;;;;4993261;28;51380;-60
2021/09/17 05:59:29;;;;;;;;;22.50;20.50;;;;;;;;5013456;28;51275;-61
2021/09/17 06:01:54;;;;;;;;;23.25;20.25;;;;;;;;5011105;28;51383;-61
2021/09/17 06:04:20;;;;;;;;;23.25;22.00;;;;;;;;4998635;28;53604;-62
2021/09/17 06:06:46;;;;;;;;;22.75;22.75;;;;;;;;4999330;28;53542;-60
2021/09/17 06:09:11;;;;;;;;;25.25;23.75;;;;;;;;4995331;28;52722;-61
2021/09/17 06:11:37;;;;;;;;;23.50;23.00;;;;;;;;5001307;28;50925;-61
2021/09/17 06:14:02;;;;;;;;;24.50;23.75;;;;;;;;4996405;28;51250;-60
2021/09/17 06:16:27;;;;;;;;;21.00;19.75;;;;;;;;4998940;28;51700;-59
2021/09/17 06:19:00;;;;;;;;;21.75;19.75;;;;;;;;4997954;28;52886;-59
2021/09/17 06:21:25;;;;;;;;;22.00;22.00;;;;;;;;4994853;28;51512;-60
2021/09/17 06:23:50;;;;;;;;;27.00;25.00;;;;;;;;4997427;28;52876;-60
2021/09/17 06:26:15;;;;;;;;;28.00;27.00;;;;;;;;4996761;28;51261;-60
2021/09/17 06:28:41;;;;;;;;;24.75;23.75;;;;;;;;4998119;28;52834;-60
2021/09/17 06:31:06;;;;;;;;;25.75;25.00;;;;;;;;4996440;28;51296;-60
2021/09/17 06:33:31;;;;;;;;;25.50;24.00;;;;;;;;4996965;28;51054;-59
2021/09/17 06:35:56;;;;;;;;;18.50;17.50;;;;;;;;5001425;28;53040;-60
2021/09/17 06:38:22;;;;;;;;;23.75;22.75;;;;;;;;4994946;28;51847;-60
2021/09/17 06:40:47;;;;;;;;;23.50;22.75;;;;;;;;4992734;28;51495;-60
2021/09/17 06:43:12;;;;;;;;;23.50;23.00;;;;;;;;4995376;28;51717;-59
2021/09/17 06:45:37;;;;;;;;;25.75;25.75;;;;;;;;5009141;28;51364;-60
2021/09/17 06:48:03;;;;;;;;;27.00;26.50;;;;;;;;5001550;28;51165;-60
2021/09/17 06:50:29;;;;;;;;;20.00;20.00;;;;;;;;4999830;28;51351;-60
2021/09/17 06:52:55;;;;;;;;;10.00;10.00;;;;;;;;4998154;28;51145;-60
2021/09/17 06:55:21;;;;;;;;;23.50;23.25;;;;;;;;5005017;28;51376;-59
2021/09/17 06:57:49;;;;;;;;;22.00;22.00;;;;;;;;4982441;28;51958;-61
2021/09/17 07:00:18;;;;;;;;;25.50;24.00;;;;;;;;4996215;28;51131;-60
2021/09/17 07:02:43;;;;;;;;;25.00;22.50;;;;;;;;4996794;28;51342;-60
2021/09/17 07:05:09;;;;;;;;;25.50;23.25;;;;;;;;4996355;28;53107;-60
2021/09/17 07:07:35;;;;;;;;;21.50;20.00;;;;;;;;5003570;28;51331;-59
2021/09/17 07:10:00;;;;;;;;;19.75;18.25;;;;;;;;4998164;28;52731;-59
2021/09/17 07:12:25;;;;;;;;;21.50;21.50;;;;;;;;4994527;28;53189;-59
2021/09/17 07:14:50;;;;;;;;;17.50;17.50;;;;;;;;4999595;28;51186;-59
2021/09/17 07:17:16;;;;;;;;;20.75;19.50;;;;;;;;4995346;28;53238;-58
2021/09/17 07:19:41;;;;;;;;;17.67;17.67;;;;;;;;4998450;28;52812;-60
2021/09/17 07:22:07;;;;;;;;;17.50;16.75;;;;;;;;4978971;28;51405;-60
2021/09/17 07:24:32;;;;;;;;;19.00;18.00;;;;;;;;4999354;28;51324;-58
2021/09/17 07:27:00;;;;;;;;;18.50;18.25;;;;;;;;4997960;28;52850;-59
2021/09/17 07:29:25;;;;;;;;;17.33;16.33;;;;;;;;5003557;28;51217;-60
2021/09/17 07:31:50;;;;;;;;;16.25;16.25;;;;;;;;4997885;28;51263;-59
2021/09/17 07:34:18;;;;;;;;;18.00;17.67;;;;;;;;4996447;28;51418;-59
2021/09/17 07:36:44;;;;;;;;;18.67;18.67;;;;;;;;4998982;28;52003;-58
2021/09/17 07:39:09;;;;;;;;;23.25;21.50;;;;;;;;4996593;28;51051;-59
2021/09/17 07:41:37;;;;;;;;;16.33;15.67;;;;;;;;4995614;28;51253;-59
2021/09/17 07:44:03;;;;;;;;;21.75;21.00;;;;;;;;4993710;28;52675;-58
2021/09/17 07:46:29;;;;;;;;;22.00;21.75;;;;;;;;4995672;28;51353;-58
2021/09/17 07:48:54;;;;;;;;;23.50;21.75;;;;;;;;4995337;28;51115;-58
2021/09/17 07:51:22;;;;;;;;;18.25;18.25;;;;;;;;4997012;28;51351;-59
2021/09/17 07:53:47;;;;;;;;;19.75;19.50;;;;;;;;4998147;28;52393;-60
2021/09/17 07:56:12;;;;;;;;;18.00;18.00;;;;;;;;4995797;28;53408;-59
2021/09/17 07:58:40;;;;;;;;;17.00;16.00;;;;;;;;4994067;28;52824;-60
2021/09/17 08:01:05;;;;;;;;;16.00;16.00;;;;;;;;4971669;28;51256;-59
2021/09/17 08:03:32;;;;;;;;;21.33;19.67;;;;;;;;5003121;28;50888;-60
2021/09/17 08:06:00;;;;;;;;;15.33;15.33;;;;;;;;4995468;28;51338;-60
2021/09/17 08:08:26;;;;;;;;;16.33;16.33;;;;;;;;4997907;28;52578;-59
2021/09/17 08:10:52;;;;;;;;;17.33;16.00;;;;;;;;4997310;28;51181;-59
2021/09/17 08:13:17;;;;;;;;;15.33;14.33;;;;;;;;4977998;28;51085;-60
2021/09/17 08:15:43;;;;;;;;;15.00;14.67;;;;;;;;4994167;28;52895;-61
2021/09/17 08:18:09;;;;;;;;;14.00;13.67;;;;;;;;5002227;28;51268;-60
2021/09/17 08:20:34;;;;;;;;;14.00;14.00;;;;;;;;4977582;28;52479;-60
2021/09/17 08:23:00;;;;;;;;;13.00;12.33;;;;;;;;4994810;28;51626;-60
2021/09/17 08:25:25;;;;;;;;;15.00;13.67;;;;;;;;4997355;28;52012;-60
2021/09/17 08:27:53;;;;;;;;;13.33;11.67;;;;;;;;4996837;28;51579;-60
2021/09/17 08:30:19;;;;;;;;;13.33;12.33;;;;;;;;4997783;28;51234;-61
2021/09/17 08:32:44;;;;;;;;;11.67;11.00;;;;;;;;4979872;28;52710;-59
2021/09/17 08:35:10;;;;;;;;;12.67;11.67;;;;;;;;4999807;28;53923;-59
2021/09/17 08:37:35;;;;;;;;;12.00;11.67;;;;;;;;4975483;28;52741;-58
2021/09/17 08:40:01;;;;;;;;;65.00;54.00;;;;;;;;4975925;28;51332;-59
2021/09/17 08:42:26;;;;;;;;;11.67;10.67;;;;;;;;4999200;28;51068;-59
2021/09/17 08:44:51;;;;;;;;;11.67;11.67;;;;;;;;4996765;28;51774;-59
2021/09/17 08:47:17;;;;;;;;;11.67;11.67;;;;;;;;4996338;28;51193;-59
2021/09/17 08:49:43;;;;;;;;;11.33;11.33;;;;;;;;4993368;28;51338;-59
2021/09/17 08:52:08;;;;;;;;;12.00;11.00;;;;;;;;4994806;28;51348;-59
2021/09/17 08:54:33;;;;;;;;;12.33;12.00;;;;;;;;4995811;28;53068;-59
2021/09/17 08:56:59;;;;;;;;;9.67;8.00;;;;;;;;4995994;28;53245;-59
2021/09/17 08:59:24;;;;;;;;;13.00;13.00;;;;;;;;4994845;28;51130;-59
2021/09/17 09:01:49;;;;;;;;;13.00;13.00;;;;;;;;4995065;28;51061;-59
2021/09/17 09:04:14;;;;;;;;;11.33;10.67;;;;;;;;4997254;28;51333;-58
2021/09/17 09:06:47;;;;;;;;;9.00;9.00;;;;;;;;4994535;28;51865;-59
2021/09/17 09:09:16;;;;;;;;;12.00;11.67;;;;;;;;4995411;28;51242;-58
2021/09/17 09:11:41;;;;;;;;;11.67;11.67;;;;;;;;4995618;28;51399;-58
2021/09/17 09:14:10;;;;;;;;;11.67;11.33;;;;;;;;4996215;28;51231;-58
2021/09/17 09:16:41;;;;;;;;;9.67;9.67;;;;;;;;4992844;28;51088;-58
2021/09/17 09:19:15;;;;;;;;;12.33;12.00;;;;;;;;4995882;28;51757;-58
2021/09/17 09:21:40;;;;;;;;;11.33;11.33;;;;;;;;4993620;28;52882;-59
2021/09/17 09:24:10;;;;;;;;;10.67;9.67;;;;;;;;4995538;28;51776;-59
2021/09/17 09:26:35;;;;;;;;;11.33;11.00;;;;;;;;4994181;28;51246;-58
2021/09/17 09:29:01;;;;;;;;;11.67;11.67;;;;;;;;4997104;28;52778;-59
2021/09/17 09:31:37;;;;;;;;;13.33;13.33;;;;;;;;4993471;28;51450;-59
2021/09/17 09:34:03;;;;;;;;;6.33;5.33;;;;;;;;4995294;28;51823;-59
2021/09/17 09:36:29;;;;;;;;;12.00;12.00;;;;;;;;4998918;28;51042;-58
2021/09/17 09:38:55;;;;;;;;;9.67;9.67;;;;;;;;4999066;28;51427;-59
2021/09/17 09:41:22;;;;;;;;;8.67;8.67;;;;;;;;4998821;28;53472;-58
2021/09/17 09:44:05;;;;;;;;;11.33;10.67;;;;;;;;4999091;28;51970;-59
2021/09/17 09:46:35;;;;;;;;;8.67;8.00;;;;;;;;4995050;28;52236;-58
2021/09/17 09:49:02;;;;;;;;;9.00;8.33;;;;;;;;4996760;28;51114;-58
2021/09/17 09:51:28;;;;;;;;;9.33;9.33;;;;;;;;4993450;28;52730;-58
2021/09/17 09:53:54;;;;;;;;;14.00;12.00;;;;;;;;4999605;28;51408;-58
2021/09/17 09:56:19;;;;;;;;;14.67;13.67;;;;;;;;4997152;28;51351;-59
2021/09/17 09:58:47;;;;;;;;;11.00;10.67;;;;;;;;4996256;28;51704;-58
2021/09/17 10:01:13;;;;;;;;;12.25;12.25;;;;;;;;4997875;28;51168;-58
2021/09/17 10:03:39;;;;;;;;;10.00;10.00;;;;;;;;4998465;28;51834;-58
2021/09/17 10:06:04;;;;;;;;;8.67;8.67;;;;;;;;4997456;28;51194;-58
2021/09/17 10:08:30;;;;;;;;;12.00;11.33;;;;;;;;4999294;28;51252;-59
2021/09/17 10:10:58;;;;;;;;;8.67;8.67;;;;;;;;4997549;28;52664;-59
2021/09/17 10:13:23;;;;;;;;;6.67;6.67;;;;;;;;4999098;28;51853;-58
2021/09/17 10:15:48;;;;;;;;;8.00;8.00;;;;;;;;4998317;28;51197;-59
2021/09/17 10:18:16;;;;;;;;;8.00;8.00;;;;;;;;4996459;28;52760;-58
2021/09/17 10:20:41;;;;;;;;;9.67;9.00;;;;;;;;4997880;28;52704;-59
2021/09/17 10:23:26;;;;;;;;;9.00;9.00;;;;;;;;4996988;28;51868;-60
2021/09/17 10:26:02;;;;;;;;;10.67;10.67;;;;;;;;4997708;28;52801;-59
2021/09/17 10:28:27;;;;;;;;;9.00;8.00;;;;;;;;4996515;28;51268;-59
2021/09/17 10:31:08;;;;;;;;;8.67;8.67;;;;;;;;4995704;28;51431;-59
2021/09/17 10:33:33;;;;;;;;;8.00;8.00;;;;;;;;4997799;28;51092;-59
2021/09/17 10:35:58;;;;;;;;;10.00;9.00;;;;;;;;5000090;28;51192;-59
2021/09/17 10:38:31;;;;;;;;;7.00;7.00;;;;;;;;4997178;28;51485;-59
2021/09/17 10:40:59;;;;;;;;;7.67;7.67;;;;;;;;4999251;28;52682;-59
2021/09/17 10:43:36;;;;;;;;;7.00;7.00;;;;;;;;4996892;28;52041;-59
2021/09/17 10:46:02;;;;;;;;;7.67;7.67;;;;;;;;4994282;28;51205;-59
2021/09/17 10:48:29;;;;;;;;;8.33;8.33;;;;;;;;4997897;28;52848;-59
2021/09/17 10:51:02;;;;;;;;;6.67;6.67;;;;;;;;4997867;28;51386;-59
2021/09/17 10:53:39;;;;;;;;;9.33;9.33;;;;;;;;4977663;28;51225;-58
2021/09/17 10:56:06;;;;;;;;;7.00;7.00;;;;;;;;4995874;28;51253;-59
2021/09/17 10:58:32;;;;;;;;;4.33;4.33;;;;;;;;4998127;28;52653;-59
2021/09/17 11:01:05;;;;;;;;;7.00;6.33;;;;;;;;4994457;28;51775;-59
2021/09/17 11:03:38;;;;;;;;;8.67;8.67;;;;;;;;4997262;28;51785;-59
2021/09/17 11:06:19;;;;;;;;;9.00;9.00;;;;;;;;4997164;28;51370;-58
2021/09/17 11:08:44;;;;;;;;;5.33;5.00;;;;;;;;4996172;28;51355;-58
2021/09/17 11:11:30;;;;;;;;;6.00;6.00;;;;;;;;4996923;28;51406;-60
2021/09/17 11:13:57;;;;;;;;;7.00;7.00;;;;;;;;4996246;28;51167;-59
2021/09/17 11:16:23;;;;;;;;;9.00;9.00;;;;;;;;4995509;28;51847;-59
2021/09/17 11:19:00;;;;;;;;;5.67;5.33;;;;;;;;4998117;28;52744;-58
2021/09/17 11:21:26;;;;;;;;;5.33;5.33;;;;;;;;4999029;28;51338;-59
2021/09/17 11:23:52;;;;;;;;;6.00;6.00;;;;;;;;5000543;28;51551;-59
2021/09/17 11:26:27;;;;;;;;;6.67;6.67;;;;;;;;4996207;28;51522;-59
2021/09/17 11:29:04;;;;;;;;;9.50;9.50;;;;;;;;4995571;28;51845;-59
2021/09/17 11:31:34;;;;;;;;;6.33;6.33;;;;;;;;4996783;28;51922;-58
2021/09/17 11:34:00;;;;;;;;;7.00;7.00;;;;;;;;4995155;28;54102;-59
2021/09/17 11:36:36;;;;;;;;;5.00;5.00;;;;;;;;4997006;28;51330;-59
2021/09/17 11:39:10;;;;;;;;;4.33;4.33;;;;;;;;4996657;28;51505;-59
2021/09/17 11:41:40;;;;;;;;;9.00;8.00;;;;;;;;4996704;28;51530;-59
2021/09/17 11:44:05;;;;;;;;;7.67;7.67;;;;;;;;4992291;28;52184;-58
2021/09/17 11:46:30;;;;;;;;;7.00;7.00;;;;;;;;4996353;28;52061;-58
2021/09/17 11:48:55;;;;;;;;;8.33;7.67;;;;;;;;4982206;28;51463;-58
2021/09/17 11:51:21;;;;;;;;;5.67;5.67;;;;;;;;4996877;28;51138;-59
2021/09/17 11:53:46;;;;;;;;;6.67;6.67;;;;;;;;4996440;28;51897;-59
2021/09/17 11:56:11;;;;;;;;;6.33;6.33;;;;;;;;4995005;28;52734;-59
2021/09/17 11:58:43;;;;;;;;;6.00;6.00;;;;;;;;4997895;28;52193;-59
2021/09/17 12:01:16;;;;;;;;;6.00;6.00;;;;;;;;4996433;28;50937;-58
2021/09/17 12:03:41;;;;;;;;;7.00;6.33;;;;;;;;4997665;28;52223;-59
2021/09/17 12:06:06;;;;;;;;;7.67;7.67;;;;;;;;4994855;28;51157;-59
2021/09/17 12:08:31;;;;;;;;;6.33;6.33;;;;;;;;4995630;28;52924;-59
2021/09/17 12:11:01;;;;;;;;;9.00;8.00;;;;;;;;4997806;28;51178;-59
2021/09/17 12:13:26;;;;;;;;;11.00;9.00;;;;;;;;4996824;28;51735;-59
2021/09/17 12:15:55;;;;;;;;;12.00;11.00;;;;;;;;4996722;28;51291;-59
2021/09/17 12:18:22;;;;;;;;;11.00;11.00;;;;;;;;4995969;28;51102;-58
2021/09/17 12:20:50;;;;;;;;;6.33;6.33;;;;;;;;4996808;28;52603;-58
2021/09/17 12:23:17;;;;;;;;;8.00;8.00;;;;;;;;4995793;28;51900;-59
2021/09/17 12:25:43;;;;;;;;;10.00;10.00;;;;;;;;4996867;28;52147;-58
2021/09/17 12:28:11;;;;;;;;;8.00;8.00;;;;;;;;4993957;28;52701;-58
2021/09/17 12:30:37;;;;;;;;;10.33;10.00;;;;;;;;4994645;28;51316;-58
2021/09/17 12:33:12;;;;;;;;;8.67;8.67;;;;;;;;4996337;28;52832;-58
2021/09/17 12:35:39;;;;;;;;;13.33;13.33;;;;;;;;4992544;28;51384;-59
2021/09/17 12:38:06;;;;;;;;;7.67;7.67;;;;;;;;4993458;28;52590;-59
2021/09/17 12:40:33;;;;;;;;;8.00;8.00;;;;;;;;4994266;28;51609;-58
2021/09/17 12:42:59;;;;;;;;;10.00;9.00;;;;;;;;4993937;28;51309;-59
2021/09/17 12:45:25;;;;;;;;;8.00;7.33;;;;;;;;4994168;28;51154;-59
2021/09/17 12:47:51;;;;;;;;;11.00;9.00;;;;;;;;4995286;28;51218;-59
2021/09/17 12:50:17;;;;;;;;;8.33;7.33;;;;;;;;5002393;28;51323;-58
2021/09/17 12:52:46;;;;;;;;;8.33;8.33;;;;;;;;4995289;28;51173;-59
2021/09/17 12:55:30;;;;;;;;;8.33;8.33;;;;;;;;4992419;28;51254;-59
2021/09/17 12:58:02;;;;;;;;;23.00;20.50;;;;;;;;4995056;28;51834;-59
2021/09/17 13:00:27;;;;;;;;;7.00;7.00;;;;;;;;4993469;28;51113;-59
2021/09/17 13:02:53;;;;;;;;;8.00;8.00;;;;;;;;4993624;28;52703;-58
2021/09/17 13:05:18;;;;;;;;;3.67;3.67;;;;;;;;4992676;28;51169;-58
2021/09/17 13:07:43;;;;;;;;;7.00;7.00;;;;;;;;4993431;28;51404;-58
2021/09/17 13:10:09;;;;;;;;;8.00;7.33;;;;;;;;4997384;28;51333;-59
2021/09/17 13:12:34;;;;;;;;;11.00;10.00;;;;;;;;4996980;28;51939;-59
2021/09/17 13:14:59;;;;;;;;;10.33;9.67;;;;;;;;5004703;28;51709;-59
2021/09/17 13:17:24;;;;;;;;;9.33;8.67;;;;;;;;5014102;28;51048;-59
2021/09/17 13:19:50;;;;;;;;;7.67;7.67;;;;;;;;5013252;28;51106;-58
2021/09/17 13:22:15;;;;;;;;;7.67;7.00;;;;;;;;5013089;28;51945;-61
2021/09/17 13:24:40;;;;;;;;;12.67;11.67;;;;;;;;4995763;28;50900;-58
2021/09/17 13:27:05;;;;;;;;;9.00;8.00;;;;;;;;5012198;28;51140;-58
2021/09/17 13:29:30;;;;;;;;;7.00;7.00;;;;;;;;5013479;28;50962;-59
2021/09/17 13:31:56;;;;;;;;;7.00;7.00;;;;;;;;5012047;28;51777;-59
2021/09/17 13:34:21;;;;;;;;;8.00;8.00;;;;;;;;5011931;28;51079;-58
2021/09/17 13:36:46;;;;;;;;;8.00;8.00;;;;;;;;4972704;28;1182344;-59
2021/09/17 13:39:11;;;;;;;;;12.00;11.00;;;;;;;;5013218;28;51232;-59
2021/09/17 13:41:37;;;;;;;;;10.00;10.00;;;;;;;;5012618;28;51845;-59
2021/09/17 13:44:02;;;;;;;;;8.33;8.33;;;;;;;;5014344;28;50939;-58
2021/09/17 13:46:27;;;;;;;;;5.67;5.00;;;;;;;;5013721;28;51393;-59
2021/09/17 13:48:52;;;;;;;;;17.33;16.33;;;;;;;;5013676;28;51192;-58
2021/09/17 13:51:18;;;;;;;;;9.00;9.00;;;;;;;;4996477;28;52417;-59
2021/09/17 13:53:44;;;;;;;;;10.00;9.33;;;;;;;;5013561;28;51139;-59
2021/09/17 13:56:09;;;;;;;;;9.67;9.67;;;;;;;;5014718;28;51174;-58
2021/09/17 13:58:34;;;;;;;;;8.00;8.00;;;;;;;;5015118;28;51131;-59
2021/09/17 14:00:59;;;;;;;;;8.67;8.67;;;;;;;;5013847;28;51163;-58
2021/09/17 14:03:25;;;;;;;;;7.00;7.00;;;;;;;;5013614;28;51136;-59
2021/09/17 14:05:50;;;;;;;;;8.33;8.33;;;;;;;;5014407;28;51286;-59
2021/09/17 14:08:15;;;;;;;;;7.33;6.00;;;;;;;;5013778;28;51045;-59
2021/09/17 14:10:41;;;;;;;;;6.00;6.00;;;;;;;;5013337;28;51978;-58
2021/09/17 14:13:07;;;;;;;;;8.00;8.00;;;;;;;;5014270;28;50983;-58
2021/09/17 14:15:32;;;;;;;;;6.00;6.00;;;;;;;;5015869;28;50865;-58
2021/09/17 14:17:57;;;;;;;;;6.00;5.67;;;;;;;;5012384;28;51033;-59